createdAt,value
2023-05-23T00:01:11.197Z,15.61
2023-05-23T00:03:39.115Z,15.66
2023-05-23T00:06:08.229Z,15.60
2023-05-23T00:08:36.300Z,15.72
2023-05-23T00:11:04.216Z,15.77
2023-05-23T00:13:34.880Z,15.80
2023-05-23T00:16:04.630Z,15.85
2023-05-23T00:18:32.509Z,15.91
2023-05-23T00:21:00.456Z,15.92
2023-05-23T00:23:29.650Z,15.89
2023-05-23T00:25:58.548Z,15.99
2023-05-23T00:28:27.157Z,16.00
2023-05-23T00:30:55.207Z,15.99
2023-05-23T00:33:24.392Z,16.00
2023-05-23T00:35:52.460Z,16.04
2023-05-23T00:38:20.459Z,16.02
2023-05-23T00:40:48.647Z,16.04
2023-05-23T00:43:16.561Z,16.03
2023-05-23T00:45:44.549Z,16.02
2023-05-23T00:48:12.826Z,16.01
2023-05-23T00:50:42.734Z,16.03
2023-05-23T00:53:10.894Z,16.05
2023-05-23T00:55:40.523Z,15.97
2023-05-23T00:58:09.092Z,16.02
2023-05-23T01:00:38.637Z,16.01
2023-05-23T01:03:06.687Z,15.88
2023-05-23T01:05:34.977Z,15.98
2023-05-23T01:08:04.350Z,15.96
2023-05-23T01:10:32.752Z,15.98
2023-05-23T01:13:14.492Z,15.95
2023-05-23T01:15:52.164Z,15.88
2023-05-23T01:18:25.964Z,15.88
2023-05-23T01:20:59.599Z,15.91
2023-05-23T01:24:09.809Z,15.88
2023-05-23T01:26:54.581Z,15.83
2023-05-23T01:29:28.138Z,15.88
2023-05-23T01:31:59.217Z,15.84
2023-05-23T01:34:27.570Z,15.84
2023-05-23T01:36:58.334Z,15.84
2023-05-23T01:39:28.130Z,15.84
2023-05-23T01:41:57.183Z,15.70
2023-05-23T01:44:26.823Z,15.80
2023-05-23T01:46:56.516Z,15.72
2023-05-23T01:49:25.892Z,15.76
2023-05-23T01:51:54.606Z,15.75
2023-05-23T01:54:22.759Z,15.78
2023-05-23T01:56:52.856Z,15.73
2023-05-23T01:59:20.787Z,15.76
2023-05-23T02:01:50.976Z,15.77
2023-05-23T02:04:20.046Z,15.78
2023-05-23T02:06:47.933Z,15.79
2023-05-23T02:09:16.591Z,15.75
2023-05-23T02:11:46.234Z,15.74
2023-05-23T02:14:14.117Z,15.78
2023-05-23T02:16:42.064Z,15.75
2023-05-23T02:19:11.753Z,15.77
2023-05-23T02:21:40.528Z,15.79
2023-05-23T02:24:08.392Z,15.75
2023-05-23T02:26:36.264Z,15.78
2023-05-23T02:29:04.444Z,15.73
2023-05-23T02:31:32.453Z,15.79
2023-05-23T02:34:00.526Z,15.79
2023-05-23T02:36:29.841Z,15.80
2023-05-23T02:38:58.609Z,15.78
2023-05-23T02:41:26.981Z,15.81
2023-05-23T02:43:55.000Z,15.72
2023-05-23T02:46:23.197Z,15.74
2023-05-23T02:48:51.339Z,15.75
2023-05-23T02:51:19.431Z,15.79
2023-05-23T02:53:48.798Z,15.78
2023-05-23T02:56:16.952Z,15.80
2023-05-23T02:58:44.817Z,15.84
2023-05-23T03:01:13.166Z,15.78
2023-05-23T03:03:41.712Z,15.81
2023-05-23T03:06:14.429Z,15.86
2023-05-23T03:08:44.911Z,15.85
2023-05-23T03:11:14.496Z,15.85
2023-05-23T03:13:46.834Z,15.86
2023-05-23T03:16:15.305Z,15.87
2023-05-23T03:18:43.202Z,15.84
2023-05-23T03:21:11.016Z,15.83
2023-05-23T03:23:38.945Z,15.87
2023-05-23T03:26:07.538Z,15.85
2023-05-23T03:28:37.627Z,15.88
2023-05-23T03:31:05.743Z,15.90
2023-05-23T03:33:33.742Z,15.89
2023-05-23T03:36:01.657Z,15.88
2023-05-23T03:38:29.521Z,15.91
2023-05-23T03:40:57.851Z,15.91
2023-05-23T03:43:26.641Z,15.90
2023-05-23T03:45:56.011Z,15.91
2023-05-23T03:48:24.009Z,15.93
2023-05-23T03:50:52.457Z,15.88
2023-05-23T03:53:20.343Z,15.92
2023-05-23T03:55:48.285Z,15.88
2023-05-23T03:58:16.262Z,15.88
2023-05-23T04:00:46.641Z,15.85
2023-05-23T04:03:18.625Z,15.94
2023-05-23T04:05:46.634Z,15.87
2023-05-23T04:08:15.710Z,15.89
2023-05-23T04:10:43.677Z,15.92
2023-05-23T04:13:11.729Z,15.95
2023-05-23T04:15:41.160Z,15.91
2023-05-23T04:18:12.088Z,15.93
2023-05-23T04:20:41.405Z,15.83
2023-05-23T04:23:09.335Z,15.89
2023-05-23T04:25:40.903Z,15.80
2023-05-23T04:28:17.574Z,15.82
2023-05-23T04:30:45.744Z,15.82
2023-05-23T04:33:14.985Z,15.86
2023-05-23T04:35:45.287Z,15.88
2023-05-23T04:38:13.919Z,15.86
2023-05-23T04:40:42.194Z,15.87
2023-05-23T04:43:14.274Z,15.88
2023-05-23T04:46:14.204Z,15.87
2023-05-23T04:48:44.914Z,15.89
2023-05-23T04:51:14.980Z,15.89
2023-05-23T04:53:56.702Z,15.83
2023-05-23T04:56:28.375Z,15.84
2023-05-23T04:58:56.385Z,15.88
2023-05-23T05:01:26.168Z,15.80
2023-05-23T05:03:55.048Z,15.83
2023-05-23T05:06:24.881Z,15.78
2023-05-23T05:08:54.158Z,15.84
2023-05-23T05:11:22.976Z,15.78
2023-05-23T05:13:51.155Z,15.84
2023-05-23T05:16:19.240Z,15.81
2023-05-23T05:18:47.598Z,15.83
2023-05-23T05:21:15.597Z,15.80
2023-05-23T05:23:45.592Z,15.76
2023-05-23T05:26:17.116Z,15.77
2023-05-23T05:28:45.031Z,15.84
2023-05-23T05:31:15.501Z,15.84
2023-05-23T05:33:46.194Z,15.75
2023-05-23T05:36:16.197Z,15.72
2023-05-23T05:38:46.920Z,15.77
2023-05-23T05:41:18.210Z,15.82
2023-05-23T05:43:49.960Z,15.82
2023-05-23T05:46:19.145Z,15.80
2023-05-23T05:48:47.501Z,15.82
2023-05-23T05:51:18.146Z,15.80
2023-05-23T05:53:47.460Z,15.72
2023-05-23T05:56:15.449Z,15.78
2023-05-23T05:58:43.318Z,15.75
2023-05-23T06:01:14.710Z,15.74
2023-05-23T06:03:43.731Z,15.81
2023-05-23T06:06:13.171Z,15.80
2023-05-23T06:08:42.922Z,15.77
2023-05-23T06:11:17.102Z,15.71
2023-05-23T06:13:45.880Z,15.73
2023-05-23T06:16:15.143Z,15.64
2023-05-23T06:18:44.006Z,15.65
2023-05-23T06:21:11.924Z,15.70
2023-05-23T06:23:39.844Z,15.68
2023-05-23T06:26:10.822Z,15.76
2023-05-23T06:28:40.703Z,15.78
2023-05-23T06:31:10.122Z,15.74
2023-05-23T06:33:39.104Z,15.84
2023-05-23T06:36:09.637Z,15.80
2023-05-23T06:38:37.460Z,15.84
2023-05-23T06:41:07.151Z,15.89
2023-05-23T06:43:39.192Z,15.93
2023-05-23T06:46:25.628Z,15.97
2023-05-23T06:49:02.676Z,15.92
2023-05-23T06:51:35.962Z,15.95
2023-05-23T06:54:03.951Z,15.85
2023-05-23T06:56:31.892Z,15.90
2023-05-23T06:59:04.104Z,15.81
2023-05-23T07:01:33.573Z,15.86
2023-05-23T07:04:01.531Z,15.82
2023-05-23T07:06:31.245Z,15.69
2023-05-23T07:08:59.134Z,15.58
2023-05-23T07:11:28.975Z,15.61
2023-05-23T07:14:00.527Z,15.65
2023-05-23T07:16:39.683Z,15.58
2023-05-23T07:19:09.229Z,15.49
2023-05-23T07:21:43.568Z,15.39
2023-05-23T07:24:13.103Z,15.50
2023-05-23T07:26:40.961Z,15.37
2023-05-23T07:29:08.881Z,15.34
2023-05-23T07:31:39.970Z,15.42
2023-05-23T07:34:09.710Z,15.42
2023-05-23T07:36:58.436Z,15.45
2023-05-23T07:39:28.871Z,15.45
2023-05-23T07:41:59.887Z,15.45
2023-05-23T07:44:29.684Z,15.34
2023-05-23T07:46:59.999Z,15.42
2023-05-23T07:49:27.943Z,15.26
2023-05-23T07:51:56.905Z,15.28
2023-05-23T07:54:26.961Z,15.39
2023-05-23T07:56:59.168Z,15.41
2023-05-23T07:59:27.403Z,15.39
2023-05-23T08:01:55.905Z,15.39
2023-05-23T08:04:27.425Z,15.37
2023-05-23T08:09:32.805Z,15.34
2023-05-23T08:12:01.199Z,15.25
2023-05-23T08:14:42.722Z,15.35
2023-05-23T08:17:41.122Z,15.31
2023-05-23T08:20:12.286Z,15.31
2023-05-23T08:22:40.540Z,15.35
2023-05-23T08:25:09.255Z,15.27
2023-05-23T08:27:39.102Z,15.34
2023-05-23T08:30:19.246Z,15.41
2023-05-23T08:32:47.976Z,15.35
2023-05-23T08:35:17.225Z,15.42
2023-05-23T08:37:46.436Z,15.33
2023-05-23T08:40:19.091Z,15.35
2023-05-23T08:42:51.081Z,15.22
2023-05-23T08:45:20.864Z,15.17
2023-05-23T08:47:51.271Z,15.20
2023-05-23T08:50:23.285Z,15.28
2023-05-23T08:52:56.941Z,15.28
2023-05-23T08:55:27.817Z,15.28
2023-05-23T08:57:57.767Z,15.35
2023-05-23T09:00:36.787Z,15.46
2023-05-23T09:03:05.279Z,15.43
2023-05-23T09:05:58.847Z,15.48
2023-05-23T09:08:26.936Z,15.45
2023-05-23T09:11:02.793Z,15.41
2023-05-23T09:13:31.937Z,15.45
2023-05-23T09:16:05.036Z,15.49
2023-05-23T09:18:41.124Z,15.44
2023-05-23T09:21:11.787Z,15.38
2023-05-23T09:23:46.459Z,15.31
2023-05-23T09:26:14.877Z,15.26
2023-05-23T09:28:47.107Z,15.32
2023-05-23T09:31:16.417Z,15.16
2023-05-23T09:33:47.053Z,15.33
2023-05-23T09:36:16.848Z,15.41
2023-05-23T09:38:46.482Z,15.50
2023-05-23T09:41:15.829Z,15.56
2023-05-23T09:43:51.547Z,15.70
2023-05-23T09:46:21.029Z,15.73
2023-05-23T09:48:51.659Z,15.67
2023-05-23T09:51:22.550Z,15.72
2023-05-23T09:53:52.177Z,15.74
2023-05-23T09:56:20.767Z,15.81
2023-05-23T09:58:50.228Z,16.01
2023-05-23T10:01:19.365Z,16.14
2023-05-23T10:03:51.867Z,16.04
2023-05-23T10:06:28.998Z,16.12
2023-05-23T10:09:00.448Z,16.04
2023-05-23T10:12:09.864Z,16.24
2023-05-23T10:14:42.884Z,16.23
2023-05-23T10:17:16.575Z,16.42
2023-05-23T10:19:49.830Z,16.44
2023-05-23T10:22:20.460Z,16.64
2023-05-23T10:24:49.492Z,16.61
2023-05-23T10:27:17.816Z,16.66
2023-05-23T10:29:45.879Z,16.79
2023-05-23T10:32:16.030Z,16.87
2023-05-23T10:34:55.870Z,16.81
2023-05-23T10:37:31.014Z,16.94
2023-05-23T10:40:06.032Z,16.98
2023-05-23T10:42:44.454Z,17.16
2023-05-23T10:45:16.377Z,17.06
2023-05-23T10:47:44.351Z,17.22
2023-05-23T10:50:16.031Z,17.22
2023-05-23T10:52:45.974Z,17.32
2023-05-23T10:55:15.361Z,17.15
2023-05-23T10:57:43.960Z,17.20
2023-05-23T11:00:16.513Z,17.19
2023-05-23T11:03:01.595Z,17.20
2023-05-23T11:05:31.912Z,17.10
2023-05-23T11:08:13.902Z,17.11
2023-05-23T11:10:55.289Z,16.82
2023-05-23T11:13:24.346Z,17.01
2023-05-23T11:15:52.702Z,17.04
2023-05-23T11:18:25.641Z,16.92
2023-05-23T11:20:55.593Z,16.92
2023-05-23T11:23:25.561Z,16.98
2023-05-23T11:25:55.471Z,17.07
2023-05-23T11:28:24.104Z,17.20
2023-05-23T11:30:52.533Z,17.26
2023-05-23T11:33:21.068Z,17.24
2023-05-23T11:35:51.820Z,17.35
2023-05-23T11:38:20.496Z,17.30
2023-05-23T11:40:50.046Z,17.38
2023-05-23T11:43:19.758Z,17.27
2023-05-23T11:45:48.623Z,17.50
2023-05-23T11:48:17.809Z,17.54
2023-05-23T11:50:48.095Z,17.51
2023-05-23T11:53:18.590Z,17.54
2023-05-23T11:55:55.418Z,17.69
2023-05-23T11:58:27.213Z,17.61
2023-05-23T12:01:00.380Z,17.63
2023-05-23T12:03:28.466Z,17.55
2023-05-23T12:05:57.114Z,17.47
2023-05-23T12:08:25.226Z,17.48
2023-05-23T12:10:58.608Z,17.43
2023-05-23T12:13:29.231Z,17.41
2023-05-23T12:15:58.627Z,17.54
2023-05-23T12:18:30.057Z,17.46
2023-05-23T12:21:01.364Z,17.30
2023-05-23T12:23:31.330Z,17.30
2023-05-23T12:26:06.803Z,17.40
2023-05-23T12:28:39.051Z,17.59
2023-05-23T12:31:14.006Z,17.49
2023-05-23T12:33:43.950Z,17.45
2023-05-23T12:36:12.512Z,17.52
2023-05-23T12:38:41.006Z,17.73
2023-05-23T12:41:11.953Z,17.91
2023-05-23T12:43:41.182Z,17.78
2023-05-23T12:46:09.553Z,17.80
2023-05-23T12:48:37.526Z,17.85
2023-05-23T12:51:06.216Z,17.84
2023-05-23T12:53:34.354Z,17.73
2023-05-23T12:56:02.223Z,17.70
2023-05-23T12:58:32.329Z,17.81
2023-05-23T13:01:00.355Z,17.87
2023-05-23T13:03:28.414Z,17.93
2023-05-23T13:05:56.460Z,17.84
2023-05-23T13:08:24.447Z,17.81
2023-05-23T13:10:52.547Z,17.90
2023-05-23T13:13:21.034Z,17.87
2023-05-23T13:15:51.112Z,18.08
2023-05-23T13:18:41.741Z,18.29
2023-05-23T13:21:09.938Z,18.40
2023-05-23T13:23:39.005Z,18.35
2023-05-23T13:26:08.032Z,18.44
2023-05-23T13:28:35.958Z,18.34
2023-05-23T13:31:05.295Z,18.22
2023-05-23T13:33:33.247Z,18.26
2023-05-23T13:36:01.154Z,18.13
2023-05-23T13:38:30.873Z,18.00
2023-05-23T13:40:58.797Z,17.87
2023-05-23T13:43:26.702Z,17.83
2023-05-23T13:45:54.817Z,18.00
2023-05-23T13:48:24.140Z,17.88
2023-05-23T13:50:52.061Z,17.96
2023-05-23T13:53:21.524Z,17.95
2023-05-23T13:55:49.866Z,17.94
2023-05-23T13:58:18.603Z,17.91
2023-05-23T14:00:46.496Z,17.84
2023-05-23T14:03:15.586Z,17.73
2023-05-23T14:05:45.070Z,17.75
2023-05-23T14:08:14.037Z,17.69
2023-05-23T14:10:42.503Z,17.86
2023-05-23T14:13:10.992Z,17.72
2023-05-23T14:15:39.131Z,17.81
2023-05-23T14:18:07.640Z,17.80
2023-05-23T14:20:35.590Z,17.96
2023-05-23T14:23:04.898Z,18.10
2023-05-23T14:25:32.786Z,18.04
2023-05-23T14:28:00.800Z,18.20
2023-05-23T14:30:28.782Z,18.38
2023-05-23T14:32:56.687Z,18.45
2023-05-23T14:35:25.778Z,18.27
2023-05-23T14:37:53.686Z,18.44
2023-05-23T14:40:22.877Z,18.54
2023-05-23T14:42:50.756Z,18.59
2023-05-23T14:45:19.185Z,18.77
2023-05-23T14:47:47.637Z,18.86
2023-05-23T14:50:15.958Z,19.04
2023-05-23T14:52:43.900Z,19.01
2023-05-23T14:55:12.298Z,19.03
2023-05-23T14:57:41.706Z,19.12
2023-05-23T15:00:11.601Z,19.14
2023-05-23T15:02:39.727Z,19.37
2023-05-23T15:05:08.748Z,19.32
2023-05-23T15:07:38.588Z,19.36
2023-05-23T15:10:08.423Z,19.53
2023-05-23T15:12:36.389Z,19.20
2023-05-23T15:15:06.817Z,19.05
2023-05-23T15:17:35.141Z,19.14
2023-05-23T15:20:06.019Z,19.34
2023-05-23T15:22:39.520Z,19.28
2023-05-23T15:25:09.201Z,19.51
2023-05-23T15:27:37.198Z,19.60
2023-05-23T15:30:07.977Z,19.65
2023-05-23T15:32:35.938Z,19.77
2023-05-23T15:35:03.841Z,19.76
2023-05-23T15:37:31.729Z,20.05
2023-05-23T15:39:59.722Z,19.85
2023-05-23T15:42:27.654Z,19.76
2023-05-23T15:44:55.897Z,19.82
2023-05-23T15:47:25.301Z,19.81
2023-05-23T15:49:53.231Z,20.00
2023-05-23T15:52:21.496Z,20.30
2023-05-23T15:54:49.534Z,20.13
2023-05-23T15:57:17.514Z,20.13
2023-05-23T15:59:45.452Z,20.20
2023-05-23T16:02:14.615Z,20.48
2023-05-23T16:04:43.851Z,20.72
2023-05-23T16:07:12.033Z,20.49
2023-05-23T16:09:40.303Z,20.63
2023-05-23T16:12:08.882Z,20.76
2023-05-23T16:14:36.850Z,20.88
2023-05-23T16:17:07.024Z,21.05
2023-05-23T16:19:35.322Z,20.96
2023-05-23T16:22:04.974Z,20.74
2023-05-23T16:24:32.874Z,20.53
2023-05-23T16:27:01.224Z,20.55
2023-05-23T16:29:29.068Z,20.28
2023-05-23T16:31:56.953Z,20.35
2023-05-23T16:34:24.866Z,20.18
2023-05-23T16:36:52.728Z,20.19
2023-05-23T16:39:21.998Z,20.06
2023-05-23T16:41:49.855Z,20.08
2023-05-23T16:44:17.977Z,19.73
2023-05-23T16:46:46.053Z,19.34
2023-05-23T16:49:13.884Z,19.25
2023-05-23T16:51:41.728Z,19.21
2023-05-23T16:54:09.778Z,19.06
2023-05-23T16:56:39.182Z,19.02
2023-05-23T16:59:07.123Z,18.94
2023-05-23T17:01:35.339Z,18.64
2023-05-23T17:04:04.766Z,18.47
2023-05-23T17:06:33.522Z,18.67
2023-05-23T17:09:01.419Z,18.54
2023-05-23T17:11:29.335Z,18.50
2023-05-23T17:13:58.599Z,18.21
2023-05-23T17:16:26.550Z,17.89
2023-05-23T17:18:54.480Z,17.98
2023-05-23T17:21:22.452Z,17.84
2023-05-23T17:23:50.334Z,17.71
2023-05-23T17:26:19.733Z,17.68
2023-05-23T17:28:48.059Z,17.77
2023-05-23T17:31:18.291Z,17.61
2023-05-23T17:33:46.740Z,17.58
2023-05-23T17:36:15.156Z,17.50
2023-05-23T17:38:43.270Z,17.53
2023-05-23T17:41:11.774Z,17.34
2023-05-23T17:43:39.717Z,17.37
2023-05-23T17:46:07.691Z,17.29
2023-05-23T17:48:46.917Z,17.14
2023-05-23T17:51:16.723Z,16.98
2023-05-23T17:53:45.099Z,16.88
2023-05-23T17:56:13.073Z,16.89
2023-05-23T17:58:43.922Z,16.90
2023-05-23T18:01:13.683Z,16.75
2023-05-23T18:03:43.356Z,16.69
2023-05-23T18:06:11.212Z,16.46
2023-05-23T18:08:39.095Z,16.52
2023-05-23T18:11:06.994Z,16.53
2023-05-23T18:13:34.861Z,16.45
2023-05-23T18:16:02.683Z,16.34
2023-05-23T18:18:30.622Z,16.35
2023-05-23T18:20:59.873Z,16.28
2023-05-23T18:23:27.783Z,16.14
2023-05-23T18:25:55.634Z,16.15
2023-05-23T18:28:23.533Z,16.19
2023-05-23T18:30:51.444Z,16.15
2023-05-23T18:33:19.473Z,16.06
2023-05-23T18:35:47.821Z,16.09
2023-05-23T18:38:17.117Z,15.94
2023-05-23T18:40:45.179Z,15.90
2023-05-23T18:43:13.534Z,15.79
2023-05-23T18:45:41.828Z,15.88
2023-05-23T18:48:09.911Z,15.83
2023-05-23T18:50:38.554Z,15.83
2023-05-23T18:53:07.090Z,15.75
2023-05-23T18:55:37.408Z,15.71
2023-05-23T18:58:05.451Z,15.58
2023-05-23T19:00:33.668Z,15.46
2023-05-23T19:03:01.633Z,15.51
2023-05-23T19:05:29.689Z,15.38
2023-05-23T19:07:57.570Z,15.42
2023-05-23T19:10:25.531Z,15.36
2023-05-23T19:12:54.817Z,15.34
2023-05-23T19:15:22.791Z,15.25
2023-05-23T19:17:50.777Z,15.28
2023-05-23T19:20:20.004Z,15.16
2023-05-23T19:22:51.870Z,15.08
2023-05-23T19:25:21.037Z,15.09
2023-05-23T19:27:49.110Z,15.09
2023-05-23T19:30:18.613Z,15.06
2023-05-23T19:32:46.855Z,15.08
2023-05-23T19:35:16.859Z,15.00
2023-05-23T19:37:45.067Z,15.03
2023-05-23T19:40:14.047Z,14.94
2023-05-23T19:42:42.006Z,14.94
2023-05-23T19:45:10.639Z,14.86
2023-05-23T19:47:39.885Z,14.90
2023-05-23T19:50:10.086Z,14.87
2023-05-23T19:52:37.939Z,14.85
2023-05-23T19:55:06.976Z,14.85
2023-05-23T19:57:34.851Z,14.87
2023-05-23T20:00:02.804Z,14.77
2023-05-23T20:02:32.453Z,14.82
2023-05-23T20:05:02.184Z,14.82
2023-05-23T20:07:30.090Z,14.75
2023-05-23T20:09:58.167Z,14.72
2023-05-23T20:12:26.657Z,14.70
2023-05-23T20:14:54.578Z,14.66
2023-05-23T20:17:22.432Z,14.60
2023-05-23T20:19:50.437Z,14.59
2023-05-23T20:22:19.645Z,14.60
2023-05-23T20:24:47.716Z,14.59
2023-05-23T20:27:16.654Z,14.58
2023-05-23T20:29:44.620Z,14.57
2023-05-23T20:32:12.474Z,14.48
2023-05-23T20:34:40.614Z,14.53
2023-05-23T20:37:08.583Z,14.52
2023-05-23T20:39:38.650Z,14.46
2023-05-23T20:42:10.273Z,14.48
2023-05-23T20:44:39.268Z,14.32
2023-05-23T20:47:07.513Z,14.42
2023-05-23T20:49:37.350Z,14.32
2023-05-23T20:52:06.482Z,14.34
2023-05-23T20:54:35.354Z,14.34
2023-05-23T20:57:05.339Z,14.36
2023-05-23T20:59:33.239Z,14.33
2023-05-23T21:02:01.272Z,14.35
2023-05-23T21:04:29.300Z,14.30
2023-05-23T21:06:57.156Z,14.26
2023-05-23T21:09:25.117Z,14.26
2023-05-23T21:11:53.020Z,14.20
2023-05-23T21:14:22.455Z,14.22
2023-05-23T21:16:50.363Z,14.18
2023-05-23T21:19:18.387Z,14.22
2023-05-23T21:21:46.287Z,14.12
2023-05-23T21:24:14.583Z,14.15
2023-05-23T21:26:42.596Z,14.07
2023-05-23T21:29:10.543Z,14.01
2023-05-23T21:31:41.845Z,14.05
2023-05-23T21:34:22.269Z,14.05
2023-05-23T21:36:52.295Z,13.98
2023-05-23T21:39:20.307Z,13.96
2023-05-23T21:41:48.181Z,13.86
2023-05-23T21:44:17.658Z,13.87
2023-05-23T21:46:47.366Z,13.89
2023-05-23T21:49:16.411Z,13.79
2023-05-23T21:51:44.499Z,13.77
2023-05-23T21:54:12.482Z,13.73
2023-05-23T21:56:40.353Z,13.71
2023-05-23T21:59:08.402Z,13.61
2023-05-23T22:01:36.714Z,13.68
2023-05-23T22:04:06.093Z,13.67
2023-05-23T22:06:34.259Z,13.63
2023-05-23T22:09:02.134Z,13.65
2023-05-23T22:11:34.248Z,13.67
2023-05-23T22:14:02.466Z,13.63
2023-05-23T22:16:32.840Z,13.64
2023-05-23T22:19:02.110Z,13.63
2023-05-23T22:21:31.607Z,13.62
2023-05-23T22:23:59.952Z,13.56
2023-05-23T22:26:28.111Z,13.53
2023-05-23T22:28:56.510Z,13.58
2023-05-23T22:31:25.007Z,13.53
2023-05-23T22:33:53.089Z,13.49
2023-05-23T22:36:21.982Z,13.50
2023-05-23T22:38:51.342Z,13.43
2023-05-23T22:41:19.313Z,13.38
2023-05-23T22:43:47.353Z,13.38
2023-05-23T22:46:15.466Z,13.46
2023-05-23T22:48:43.305Z,13.32
2023-05-23T22:51:13.226Z,13.37
2023-05-23T22:53:41.282Z,13.18
2023-05-23T22:56:10.634Z,13.29
2023-05-23T22:58:38.504Z,13.36
2023-05-23T23:01:06.497Z,13.31
2023-05-23T23:03:34.480Z,13.19
2023-05-23T23:06:06.229Z,13.11
2023-05-23T23:08:34.507Z,13.11
2023-05-23T23:11:02.467Z,13.00
2023-05-23T23:13:31.855Z,12.97
2023-05-23T23:15:59.717Z,13.05
2023-05-23T23:18:27.854Z,13.06
2023-05-23T23:20:56.337Z,13.04
2023-05-23T23:23:24.785Z,13.00
2023-05-23T23:25:52.803Z,12.98
2023-05-23T23:28:20.793Z,13.03
2023-05-23T23:30:50.089Z,12.90
2023-05-23T23:33:17.986Z,12.84
2023-05-23T23:35:48.505Z,12.88
2023-05-23T23:38:16.976Z,12.81
2023-05-23T23:40:45.692Z,12.83
2023-05-23T23:43:13.858Z,12.84
2023-05-23T23:45:41.824Z,12.74
2023-05-23T23:48:11.339Z,12.81
2023-05-23T23:50:39.374Z,12.78
2023-05-23T23:53:08.054Z,12.77
2023-05-23T23:55:35.972Z,12.77
2023-05-23T23:58:03.859Z,12.74
